Time;durP1;ratioP1;P1;durP2;ratioP2;P2;SDS_P1;SDS_P2;PMS_P1;PMS_P2;Temp;Humidity;BMP_temperature;BMP_pressure;BME280_temperature;BME280_humidity;BME280_pressure;Samples;Min_cycle;Max_cycle;Signal;HPM_P1;HPM_P2
2022/11/10 00:02:08;;;;;;;20.37;13.32;;;;;;;5.20;74.36;101298.63;1686845;83;21079;-62
2022/11/10 00:04:53;;;;;;;30.82;23.90;;;;;;;5.23;74.40;101296.36;1701164;83;21297;-63
2022/11/10 00:07:40;;;;;;;35.08;24.57;;;;;;;5.31;74.33;101299.92;1701513;82;21035;-62
2022/11/10 00:10:26;;;;;;;31.02;23.98;;;;;;;5.34;74.41;101294.11;1708224;82;21087;-63
2022/11/10 00:13:11;;;;;;;29.30;23.27;;;;;;;5.32;74.44;101289.89;1702865;83;21112;-63
2022/11/10 00:19:04;;;;;;;21.68;11.22;;;;;;;5.16;74.37;101285.34;1698947;83;21255;-64
2022/11/10 00:21:49;;;;;;;27.48;20.57;;;;;;;5.16;74.37;101280.55;1693014;83;21050;-63
2022/11/10 00:24:34;;;;;;;32.38;22.35;;;;;;;5.20;74.22;101274.30;1694355;83;21571;-62
2022/11/10 00:27:20;;;;;;;28.50;21.65;;;;;;;5.18;74.16;101271.77;1697846;82;21054;-63
2022/11/10 00:30:05;;;;;;;32.42;22.52;;;;;;;5.14;74.25;101270.64;1693108;83;21427;-63
2022/11/10 00:32:51;;;;;;;17.62;9.60;;;;;;;5.10;74.32;101269.09;1738531;82;21140;-64
2022/11/10 00:35:37;;;;;;;21.03;10.13;;;;;;;5.05;74.28;101267.98;1733409;82;21045;-64
2022/11/10 00:38:22;;;;;;;19.27;11.07;;;;;;;5.05;74.23;101269.75;1732875;81;21049;-63
2022/11/10 00:41:08;;;;;;;32.17;22.75;;;;;;;5.10;74.03;101272.55;1730309;80;21297;-64
2022/11/10 00:43:54;;;;;;;19.03;11.07;;;;;;;5.14;74.04;101271.95;1725207;80;21022;-64
2022/11/10 00:46:39;;;;;;;31.85;23.45;;;;;;;5.11;74.16;101272.08;1733781;81;22789;-63
2022/11/10 00:49:25;;;;;;;31.73;23.45;;;;;;;5.08;74.21;101263.08;1736343;80;21083;-63
2022/11/10 00:52:11;;;;;;;27.90;21.93;;;;;;;5.02;74.23;101258.52;1733012;81;21531;-64
2022/11/10 00:54:56;;;;;;;28.57;21.07;;;;;;;5.02;74.15;101259.81;1732025;81;21042;-64
2022/11/10 00:57:42;;;;;;;16.40;9.23;;;;;;;5.06;73.87;101255.78;1725405;81;21039;-64
2022/11/10 01:00:27;;;;;;;20.15;9.75;;;;;;;5.08;73.89;101261.77;1717531;80;22098;-64
2022/11/10 01:03:15;;;;;;;19.47;10.03;;;;;;;5.03;74.08;101252.39;1725706;82;22380;-64
2022/11/10 01:06:11;;;;;;;28.40;20.72;;;;;;;4.98;74.20;101250.44;1718366;81;21567;-63
2022/11/10 01:08:56;;;;;;;17.50;9.25;;;;;;;4.92;74.19;101249.39;1725180;82;21023;-63
2022/11/10 01:11:42;;;;;;;19.83;9.83;;;;;;;4.93;74.18;101245.88;1719246;80;21102;-62
2022/11/10 01:14:33;;;;;;;26.40;18.75;;;;;;;5.02;74.37;101243.33;1730592;81;68218;-49
2022/11/10 01:17:18;;;;;;;26.07;19.07;;;;;;;5.06;74.50;101237.08;1732870;80;21023;-49
2022/11/10 01:20:07;;;;;;;14.30;8.40;;;;;;;5.11;75.05;101241.64;1723683;82;21710;-49
2022/11/10 01:22:51;;;;;;;22.77;16.95;;;;;;;5.16;75.38;101237.50;1732058;80;21060;-49
2022/11/10 01:25:37;;;;;;;26.65;17.80;;;;;;;5.21;75.44;101236.84;1735166;81;21044;-49
2022/11/10 01:28:22;;;;;;;26.52;18.95;;;;;;;5.35;75.52;101230.56;1731552;82;21840;-48
2022/11/10 01:31:14;;;;;;;18.42;10.63;;;;;;;5.48;75.63;101234.80;1725149;80;21070;-49
2022/11/10 01:34:00;;;;;;;18.42;9.78;;;;;;;5.54;75.85;101227.97;1737220;80;21013;-48
2022/11/10 01:36:45;;;;;;;26.70;18.15;;;;;;;5.58;76.06;101228.67;1728625;80;21076;-50
2022/11/10 01:39:30;;;;;;;18.07;7.80;;;;;;;5.66;76.17;101226.56;1730362;82;21026;-48
2022/11/10 01:42:30;;;;;;;31.25;9.88;;;;;;;5.76;76.01;101229.13;1736748;80;21772;-48
2022/11/10 01:45:39;;;;;;;28.20;18.85;;;;;;;5.88;76.02;101228.18;1731125;80;21510;-47
2022/11/10 01:48:36;;;;;;;18.57;8.80;;;;;;;5.90;76.13;101224.59;1727415;82;21078;-48
2022/11/10 01:51:45;;;;;;;17.33;8.37;;;;;;;5.93;76.07;101232.29;1737137;80;21097;-49
2022/11/10 01:54:37;;;;;;;15.50;8.63;;;;;;;5.93;76.07;101232.29;1740192;80;21507;-48
2022/11/10 01:57:24;;;;;;;27.40;18.30;;;;;;;6.01;76.26;101231.94;1737156;80;21267;-48
2022/11/10 02:00:11;;;;;;;25.57;17.17;;;;;;;6.06;76.12;101227.34;1729898;82;21042;-48
2022/11/10 02:03:08;;;;;;;24.40;17.87;;;;;;;6.09;76.22;101232.90;1736729;80;21342;-48
2022/11/10 02:05:53;;;;;;;25.88;18.23;;;;;;;6.09;76.39;101232.42;1734922;82;21060;-48
2022/11/10 02:08:40;;;;;;;20.43;9.58;;;;;;;6.08;76.50;101232.03;1733855;80;21037;-48
2022/11/10 02:11:27;;;;;;;16.97;9.23;;;;;;;6.10;76.41;101238.05;1736686;80;21816;-47
2022/11/10 02:14:12;;;;;;;27.98;17.82;;;;;;;6.16;76.17;101238.20;1730008;81;21028;-48
2022/11/10 02:16:57;;;;;;;19.32;9.68;;;;;;;6.23;76.27;101246.60;1732370;80;21549;-47
2022/11/10 02:19:44;;;;;;;24.65;18.10;;;;;;;6.23;76.33;101244.83;1709969;82;21295;-47
2022/11/10 02:22:30;;;;;;;18.73;9.43;;;;;;;6.19;76.34;101243.30;1736171;80;21498;-47
2022/11/10 02:25:18;;;;;;;;;;;;;;;6.21;76.18;101244.53;1740720;80;21771;-49
2022/11/10 02:28:05;;;;;;;24.30;17.35;;;;;;;6.26;75.89;101244.69;1732569;80;20183;-50
2022/11/10 02:30:50;;;;;;;26.10;18.23;;;;;;;6.30;75.81;101249.30;1724745;82;21092;-47
2022/11/10 02:33:36;;;;;;;15.88;8.95;;;;;;;6.31;75.78;101244.47;1732565;81;21025;-49
2022/11/10 02:36:21;;;;;;;27.35;19.00;;;;;;;6.28;75.85;101251.14;1730227;80;21446;-48
2022/11/10 02:39:06;;;;;;;19.82;9.45;;;;;;;6.26;76.00;101249.08;1676685;84;21132;-48
2022/11/10 02:41:51;;;;;;;17.17;9.33;;;;;;;6.22;75.94;101257.53;1671543;84;21523;-48
2022/11/10 02:44:37;;;;;;;19.37;10.20;;;;;;;6.24;76.03;101251.76;1676958;83;21095;-48
2022/11/10 02:47:22;;;;;;;25.97;16.70;;;;;;;6.34;76.00;101252.17;1693992;82;21019;-48
2022/11/10 02:50:08;;;;;;;26.02;17.57;;;;;;;6.43;76.03;101257.41;1666201;84;21707;-50
2022/11/10 02:52:54;;;;;;;25.35;18.20;;;;;;;6.47;76.07;101261.55;1732602;80;21139;-49
2022/11/10 02:55:39;;;;;;;25.02;18.37;;;;;;;6.48;76.28;101258.86;1728811;82;21047;-47
2022/11/10 02:58:24;;;;;;;28.38;19.25;;;;;;;6.50;76.37;101257.02;1730508;80;21488;-47
2022/11/10 03:01:09;;;;;;;26.73;17.30;;;;;;;6.54;76.24;101259.48;1733507;81;21017;-47
2022/11/10 03:03:54;;;;;;;29.37;18.17;;;;;;;6.59;76.01;101253.13;1725111;82;21030;-47
2022/11/10 03:06:40;;;;;;;18.60;8.53;;;;;;;6.62;75.90;101246.87;1742423;80;21181;-47
2022/11/10 03:09:25;;;;;;;26.15;18.55;;;;;;;6.63;76.11;101247.27;1711204;83;21057;-47
2022/11/10 03:12:10;;;;;;;23.87;16.50;;;;;;;6.63;76.14;101246.80;1721624;80;20963;-48
2022/11/10 03:14:54;;;;;;;23.87;16.35;;;;;;;6.68;76.01;101245.27;1741251;81;21104;-48
2022/11/10 03:17:41;;;;;;;23.95;17.52;;;;;;;6.76;75.76;101246.18;1744497;80;21284;-48
2022/11/10 03:20:27;;;;;;;17.60;8.18;;;;;;;6.84;75.52;101248.82;1741555;80;22014;-48
2022/11/10 03:23:12;;;;;;;26.60;18.65;;;;;;;6.82;75.43;101244.10;1731660;80;21586;-49
2022/11/10 03:25:57;;;;;;;23.60;17.80;;;;;;;6.82;75.44;101239.34;1736897;82;21084;-48
2022/11/10 03:28:43;;;;;;;25.43;17.10;;;;;;;6.85;75.33;101242.64;1727639;80;21087;-47
2022/11/10 03:31:28;;;;;;;25.43;17.87;;;;;;;6.92;75.12;101237.95;1732302;80;20999;-47
2022/11/10 03:34:13;;;;;;;26.50;18.48;;;;;;;6.97;75.05;101241.64;1743967;80;21840;-47
2022/11/10 03:36:58;;;;;;;25.30;17.98;;;;;;;6.95;75.21;101235.66;1735675;81;21041;-47
2022/11/10 03:39:44;;;;;;;18.93;9.57;;;;;;;6.95;75.24;101239.58;1741783;81;20978;-48
2022/11/10 03:42:29;;;;;;;28.43;17.03;;;;;;;7.00;75.05;101242.33;1741719;80;21068;-48
2022/11/10 03:45:15;;;;;;;27.65;17.67;;;;;;;7.05;74.85;101232.47;1713584;82;21009;-48
2022/11/10 03:48:00;;;;;;;29.10;19.75;;;;;;;7.07;74.75;101233.70;1736937;80;21437;-48
2022/11/10 03:50:45;;;;;;;25.65;18.20;;;;;;;7.03;75.05;101234.80;1741408;80;21429;-48
2022/11/10 03:54:38;;;;;;;26.85;18.32;;;;;;;6.97;75.63;101229.87;1790850;77;22291;-62
2022/11/10 03:57:23;;;;;;;26.97;18.02;;;;;;;7.14;74.72;101228.52;1795050;78;21527;-62
2022/11/10 04:00:10;;;;;;;17.17;9.80;;;;;;;7.18;74.51;101233.16;1787042;78;22847;-63
2022/11/10 04:02:54;;;;;;;27.32;18.92;;;;;;;7.20;74.43;101227.38;1783423;80;21010;-63
2022/11/10 04:09:00;;;;;;;27.30;18.98;;;;;;;7.20;74.57;101224.28;1780175;78;20928;-62
2022/11/10 04:17:54;;;;;;;25.77;18.10;;;;;;;7.34;74.17;101228.78;1772213;78;21570;-61
2022/11/10 04:20:39;;;;;;;23.83;18.30;;;;;;;7.34;74.24;101222.72;1764478;80;21026;-63
2022/11/10 04:23:34;;;;;;;19.40;8.97;;;;;;;7.34;74.18;101230.09;1770502;78;21053;-63
2022/11/10 04:26:29;;;;;;;30.85;18.90;;;;;;;7.35;74.09;101222.63;1767970;78;21062;-63
2022/11/10 04:29:18;;;;;;;23.15;17.15;;;;;;;7.43;73.75;101222.20;1793596;78;22760;-63
2022/11/10 04:32:04;;;;;;;25.30;18.20;;;;;;;7.46;73.63;101219.43;1769799;80;21061;-63
2022/11/10 04:34:50;;;;;;;23.30;17.20;;;;;;;7.46;73.67;101223.83;1778857;80;21590;-62
2022/11/10 04:37:35;;;;;;;23.02;18.32;;;;;;;7.44;73.59;101222.60;1772074;79;21054;-63
2022/11/10 04:40:22;;;;;;;23.10;17.67;;;;;;;7.40;73.58;101225.85;1782596;80;21421;-63
2022/11/10 04:43:07;;;;;;;25.30;16.60;;;;;;;7.42;73.42;101227.08;1781314;80;21263;-63
2022/11/10 04:45:53;;;;;;;22.30;16.48;;;;;;;7.47;73.26;101225.06;1775555;78;28170;-63
2022/11/10 04:48:40;;;;;;;27.87;17.80;;;;;;;7.51;73.18;101225.73;1783921;78;21125;-63
2022/11/10 04:51:28;;;;;;;24.37;16.42;;;;;;;7.48;73.23;101221.53;1769061;80;21030;-62
2022/11/10 04:54:14;;;;;;;22.75;17.10;;;;;;;7.44;73.27;101224.75;1761471;80;21097;-62
2022/11/10 04:56:59;;;;;;;23.15;16.05;;;;;;;7.46;73.21;101232.52;1760849;80;21153;-63
2022/11/10 04:59:44;;;;;;;22.42;17.12;;;;;;;7.52;72.94;101234.83;1769552;80;21027;-63
2022/11/10 05:02:30;;;;;;;27.55;17.85;;;;;;;7.55;72.94;101237.28;1754012;79;21042;-63
2022/11/10 05:05:16;;;;;;;25.72;17.85;;;;;;;7.54;73.01;101235.58;1760905;80;21011;-62
2022/11/10 05:08:02;;;;;;;25.30;16.27;;;;;;;7.53;73.09;101237.84;1751104;79;21047;-63
2022/11/10 05:10:47;;;;;;;;;;;;;;;7.50;73.14;101235.82;1772747;79;21133;-62
2022/11/10 05:13:32;;;;;;;22.87;17.07;;;;;;;7.52;73.04;101241.38;1754932;80;20164;-62
2022/11/10 05:16:17;;;;;;;16.40;8.20;;;;;;;7.58;72.88;101244.98;1760439;80;22071;-62
2022/11/10 05:19:04;;;;;;;20.82;15.18;;;;;;;7.58;72.94;101246.73;1766561;79;21091;-62
2022/11/10 05:21:50;;;;;;;23.38;17.52;;;;;;;7.62;72.91;101252.21;1771299;80;21020;-62
2022/11/10 05:24:36;;;;;;;22.37;16.30;;;;;;;7.65;72.96;101260.34;1760016;80;21177;-62
2022/11/10 05:27:21;;;;;;;27.90;17.45;;;;;;;7.62;72.95;101262.69;1769936;80;21082;-63
2022/11/10 05:30:08;;;;;;;22.60;16.37;;;;;;;7.59;72.96;101259.75;1795354;79;21053;-62
2022/11/10 05:32:53;;;;;;;20.90;14.90;;;;;;;7.62;72.76;101267.45;1770684;80;21516;-63
2022/11/10 05:35:39;;;;;;;14.87;7.33;;;;;;;7.71;72.58;101267.89;1760350;79;21547;-63
2022/11/10 05:38:26;;;;;;;22.65;16.17;;;;;;;7.77;72.45;101275.42;1765642;80;21131;-64
2022/11/10 05:41:12;;;;;;;24.10;17.02;;;;;;;7.76;72.49;101276.34;1758421;80;21038;-64
2022/11/10 05:43:57;;;;;;;21.82;16.17;;;;;;;7.74;72.53;101278.20;1761484;80;21026;-64
2022/11/10 05:46:42;;;;;;;23.45;16.12;;;;;;;7.72;72.59;101283.53;1771516;80;21035;-63
2022/11/10 05:49:28;;;;;;;21.35;15.30;;;;;;;7.69;72.68;101277.14;1754572;79;21051;-63
2022/11/10 05:52:13;;;;;;;22.90;16.05;;;;;;;7.72;72.55;101287.93;1760430;79;21744;-64
2022/11/10 05:54:58;;;;;;;21.02;15.28;;;;;;;7.77;72.43;101294.61;1764484;79;21053;-63
2022/11/10 05:57:45;;;;;;;21.60;16.03;;;;;;;7.79;72.41;101289.28;1759252;80;21034;-63
2022/11/10 06:00:31;;;;;;;20.48;15.68;;;;;;;7.77;72.57;101293.30;1763212;79;21121;-63
2022/11/10 06:03:53;;;;;;;23.40;16.27;;;;;;;7.68;73.03;101296.39;1790435;78;22011;-67
2022/11/10 06:06:39;;;;;;;16.25;8.40;;;;;;;7.74;72.71;101303.09;1771331;80;20975;-66
2022/11/10 06:09:24;;;;;;;20.57;17.00;;;;;;;7.83;72.52;101300.44;1782060;78;21503;-66
2022/11/10 06:12:09;;;;;;;24.80;16.52;;;;;;;7.86;72.40;101305.05;1740178;80;20998;-66
2022/11/10 06:14:57;;;;;;;24.00;17.02;;;;;;;7.84;72.49;101300.36;1718977;83;21034;-66
2022/11/10 06:17:42;;;;;;;23.27;15.40;;;;;;;7.81;72.64;101300.52;1751173;80;20995;-66
2022/11/10 06:20:27;;;;;;;24.52;16.23;;;;;;;7.86;72.65;101306.36;1714127;82;21130;-67
2022/11/10 06:23:12;;;;;;;21.23;15.08;;;;;;;7.95;72.55;101303.70;1749163;81;21172;-65
2022/11/10 06:25:58;;;;;;;19.73;15.10;;;;;;;7.99;72.56;101306.08;1744059;81;21079;-67
2022/11/10 06:28:43;;;;;;;28.63;17.20;;;;;;;8.04;72.53;101306.31;1734873;81;21057;-67
2022/11/10 06:31:29;;;;;;;20.07;15.60;;;;;;;8.02;72.69;101299.84;1704153;83;21535;-67
2022/11/10 06:34:14;;;;;;;21.30;14.55;;;;;;;8.02;72.79;101300.28;1717483;81;21094;-66
2022/11/10 06:36:59;;;;;;;22.58;15.95;;;;;;;8.05;72.74;101306.20;1725368;82;21562;-65
2022/11/10 06:39:45;;;;;;;20.12;14.93;;;;;;;8.13;72.54;101301.38;1720111;82;21027;-68
2022/11/10 06:42:30;;;;;;;;;;;;;;;8.20;72.41;101304.52;1731917;82;21019;-68
2022/11/10 06:45:15;;;;;;;21.12;14.95;;;;;;;8.22;72.45;101307.92;1729794;82;20195;-67
2022/11/10 06:48:05;;;;;;;24.20;15.23;;;;;;;8.25;72.26;101302.48;1724348;82;21050;-68
2022/11/10 06:50:50;;;;;;;23.62;14.85;;;;;;;8.19;72.37;101311.55;1726650;82;21542;-67
2022/11/10 06:53:35;;;;;;;17.65;13.18;;;;;;;8.22;72.34;101314.47;1725756;82;21007;-65
2022/11/10 06:56:21;;;;;;;21.20;14.38;;;;;;;8.36;71.99;101313.70;1725777;82;21459;-65
2022/11/10 06:59:07;;;;;;;22.73;15.98;;;;;;;8.36;71.99;101313.70;1741792;81;21065;-69
2022/11/10 07:01:52;;;;;;;21.30;15.25;;;;;;;8.44;72.28;101309.34;1744209;81;21137;-66
2022/11/10 07:04:37;;;;;;;20.37;15.05;;;;;;;8.49;72.27;101310.80;1723457;82;21209;-66
2022/11/10 07:07:22;;;;;;;23.25;16.37;;;;;;;8.51;72.10;101314.17;1721224;82;21062;-65
2022/11/10 07:10:10;;;;;;;21.33;14.23;;;;;;;8.53;72.06;101307.06;1698882;82;21058;-67
2022/11/10 07:12:57;;;;;;;20.08;12.80;;;;;;;8.58;71.94;101306.80;1691530;83;21071;-66
2022/11/10 07:15:42;;;;;;;;;;;;;;;8.68;71.65;101304.51;1767788;79;21105;-67
2022/11/10 07:18:27;;;;;;;24.00;14.87;;;;;;;8.74;71.42;101318.13;1760994;80;21150;-66
2022/11/10 07:21:12;;;;;;;20.08;14.63;;;;;;;8.73;71.54;101315.11;1754220;79;21164;-67
2022/11/10 07:23:57;;;;;;;24.55;16.50;;;;;;;8.76;71.64;101311.92;1748652;80;21047;-66
2022/11/10 07:26:44;;;;;;;25.68;15.70;;;;;;;8.78;71.45;101315.33;1730149;80;21035;-67
2022/11/10 07:29:29;;;;;;;19.42;12.53;;;;;;;8.82;71.44;101319.45;1758338;80;21152;-66
2022/11/10 07:32:14;;;;;;;19.42;13.53;;;;;;;8.91;71.08;101318.45;1758446;80;21475;-66
2022/11/10 07:35:00;;;;;;;17.48;12.50;;;;;;;8.97;70.95;101317.24;1757382;80;21026;-67
2022/11/10 07:37:45;;;;;;;18.95;13.10;;;;;;;8.99;70.79;101320.62;1761605;80;27249;-67
2022/11/10 07:40:31;;;;;;;24.67;14.98;;;;;;;9.02;70.73;101324.38;1752458;80;21015;-67
2022/11/10 07:43:16;;;;;;;20.88;13.13;;;;;;;9.01;70.62;101321.39;1752423;80;21015;-67
2022/11/10 07:46:01;;;;;;;19.73;13.98;;;;;;;9.06;70.46;101319.79;1752321;80;21695;-70
2022/11/10 07:48:47;;;;;;;17.95;12.33;;;;;;;9.16;70.36;101313.53;1750442;80;21564;-69
2022/11/10 07:51:32;;;;;;;17.70;12.07;;;;;;;9.24;70.12;101319.18;1747614;80;21070;-67
2022/11/10 07:54:18;;;;;;;15.83;12.03;;;;;;;9.25;69.93;101317.78;1755471;80;21127;-67
2022/11/10 07:57:03;;;;;;;18.80;12.70;;;;;;;9.28;69.89;101320.23;1755067;80;21087;-67
2022/11/10 07:59:48;;;;;;;18.87;12.90;;;;;;;9.30;69.78;101324.08;1751606;80;21152;-67
2022/11/10 08:02:34;;;;;;;10.58;6.08;;;;;;;9.31;69.58;101325.75;1757628;80;21062;-67
2022/11/10 08:05:19;;;;;;;18.67;11.68;;;;;;;9.41;69.58;101326.89;1759835;80;21011;-67
2022/11/10 08:08:04;;;;;;;24.40;13.45;;;;;;;9.50;69.33;101320.25;1757063;80;21533;-67
2022/11/10 08:10:50;;;;;;;;;;;;;;;9.54;69.12;101323.06;1768963;79;21085;-67
2022/11/10 08:13:38;;;;;;;22.98;13.68;;;;;;;9.58;68.99;101321.95;1766480;80;21825;-67
2022/11/10 08:16:24;;;;;;;18.30;12.00;;;;;;;9.64;68.97;101322.88;1765073;80;21065;-66
2022/11/10 08:19:11;;;;;;;16.32;11.20;;;;;;;9.68;68.79;101326.16;1767654;80;21019;-67
2022/11/10 08:21:56;;;;;;;13.00;9.90;;;;;;;9.74;68.39;101329.73;1760400;80;21527;-67
2022/11/10 08:24:41;;;;;;;15.60;10.80;;;;;;;9.85;67.65;101335.63;1761795;80;21477;-66
2022/11/10 08:27:26;;;;;;;20.95;11.35;;;;;;;9.91;67.26;101333.94;1729144;81;21135;-67
2022/11/10 08:30:12;;;;;;;14.55;10.95;;;;;;;9.89;67.04;101341.09;1762494;80;21075;-67
2022/11/10 08:32:59;;;;;;;13.25;10.10;;;;;;;9.84;67.09;101345.78;1764807;80;26522;-68
2022/11/10 08:35:48;;;;;;;14.28;10.95;;;;;;;9.85;67.10;101339.56;1757115;80;21090;-67
2022/11/10 08:38:33;;;;;;;16.57;10.08;;;;;;;9.86;67.08;101342.11;1756003;80;21003;-67
2022/11/10 08:41:18;;;;;;;19.92;11.53;;;;;;;9.90;66.87;101340.61;1762134;80;21212;-69
2022/11/10 08:44:05;;;;;;;15.72;10.30;;;;;;;9.95;66.83;101341.16;1765731;79;21019;-67
2022/11/10 08:46:50;;;;;;;16.10;10.63;;;;;;;10.07;66.47;101341.73;1756100;80;21073;-67
2022/11/10 08:49:36;;;;;;;16.48;10.58;;;;;;;10.03;66.35;101342.85;1762239;80;21035;-67
2022/11/10 08:52:22;;;;;;;16.10;11.08;;;;;;;9.99;66.48;101336.11;1761599;80;21011;-67
2022/11/10 08:55:08;;;;;;;15.40;10.70;;;;;;;9.89;66.96;101338.45;1768249;80;22277;-67
2022/11/10 08:58:00;;;;;;;14.45;9.53;;;;;;;9.89;66.96;101338.45;1768821;80;21529;-68
2022/11/10 09:00:45;;;;;;;15.63;10.30;;;;;;;9.91;67.14;101333.94;1764017;80;21095;-67
2022/11/10 09:03:31;;;;;;;15.13;10.75;;;;;;;9.93;67.21;101339.94;1762565;80;21018;-66
2022/11/10 09:06:15;;;;;;;16.07;10.63;;;;;;;9.96;67.22;101337.61;1761769;81;21008;-68
2022/11/10 09:09:00;;;;;;;16.32;11.53;;;;;;;9.94;67.25;101340.81;1750799;81;21239;-67
2022/11/10 09:11:47;;;;;;;15.55;10.82;;;;;;;9.92;67.36;101340.03;1753554;80;21059;-67
2022/11/10 09:14:32;;;;;;;15.37;10.30;;;;;;;9.95;67.40;101337.22;1746332;80;21030;-67
2022/11/10 09:17:18;;;;;;;;;;;;;;;10.02;67.24;101331.98;1758145;81;21050;-67
2022/11/10 09:20:05;;;;;;;15.05;10.93;;;;;;;10.05;67.34;101333.08;1757834;81;20194;-66
2022/11/10 09:22:50;;;;;;;16.65;10.88;;;;;;;10.04;67.50;101331.41;1749843;81;21232;-67
2022/11/10 09:25:37;;;;;;;14.68;11.08;;;;;;;10.03;67.40;101329.22;1750558;81;21099;-67
2022/11/10 09:28:22;;;;;;;17.63;11.23;;;;;;;10.02;67.59;101330.66;1742230;81;21042;-67
2022/11/10 09:31:13;;;;;;;14.13;10.60;;;;;;;10.04;67.59;101330.92;1670207;80;68602;-58
2022/11/10 09:33:59;;;;;;;15.03;10.23;;;;;;;10.13;67.56;101330.81;1662253;84;21552;-59
2022/11/10 09:36:45;;;;;;;13.13;9.73;;;;;;;10.17;67.41;101325.75;1659746;84;22025;-61
2022/11/10 09:39:30;;;;;;;16.80;10.80;;;;;;;10.17;67.35;101332.32;1668406;84;21578;-57
2022/11/10 09:42:33;;;;;;;15.98;11.20;;;;;;;10.15;67.37;101333.34;1658972;84;21115;-57
2022/11/10 09:45:35;;;;;;;11.70;9.10;;;;;;;10.11;67.50;101336.64;1658702;84;21112;-57
2022/11/10 09:48:29;;;;;;;15.28;10.58;;;;;;;10.11;67.66;101336.64;1663177;84;21594;-58
2022/11/10 09:51:20;;;;;;;13.43;9.10;;;;;;;10.20;67.53;101333.89;1659360;84;22810;-57
2022/11/10 09:54:28;;;;;;;19.25;11.28;;;;;;;10.21;67.58;101335.12;1658407;84;21071;-57
2022/11/10 09:57:16;;;;;;;14.85;10.78;;;;;;;10.23;67.56;101336.34;1666927;84;21107;-56
2022/11/10 10:00:04;;;;;;;15.83;11.10;;;;;;;10.16;67.63;101333.25;1667095;84;21102;-56
2022/11/10 10:03:48;;;;;;;14.80;10.50;;;;;;;9.94;68.56;101331.61;1760095;78;22714;-67
2022/11/10 10:06:40;;;;;;;18.25;11.00;;;;;;;10.03;68.06;101337.11;1742680;80;21018;-67
2022/11/10 10:10:00;;;;;;;14.05;10.18;;;;;;;10.11;68.18;101336.64;1743559;80;21564;-68
2022/11/10 10:13:21;;;;;;;15.88;11.97;;;;;;;10.12;67.93;101328.27;1739153;81;21030;-67
2022/11/10 10:16:15;;;;;;;14.38;10.63;;;;;;;10.06;68.16;101326.89;1743169;81;21062;-67
2022/11/10 10:19:43;;;;;;;16.15;11.25;;;;;;;10.04;68.43;101328.77;1742785;80;21064;-67
2022/11/10 10:22:46;;;;;;;15.63;10.72;;;;;;;9.99;68.68;101333.00;1737720;81;21530;-67
2022/11/10 10:25:32;;;;;;;20.27;11.78;;;;;;;10.05;68.49;101321.23;1742064;80;21400;-69
2022/11/10 10:28:23;;;;;;;16.60;11.65;;;;;;;10.11;68.23;101326.13;1743488;81;21018;-69
2022/11/10 10:31:25;;;;;;;18.37;11.35;;;;;;;10.07;68.35;101322.02;1738109;81;21018;-69
2022/11/10 10:34:23;;;;;;;18.20;12.43;;;;;;;10.03;68.47;101322.65;1737791;81;21691;-69
2022/11/10 10:37:40;;;;;;;21.55;13.32;;;;;;;9.99;68.71;101318.53;1741058;80;21046;-69
2022/11/10 10:40:26;;;;;;;18.82;10.70;;;;;;;9.97;69.09;101322.19;1743315;80;21277;-69
2022/11/10 10:43:11;;;;;;;14.53;11.27;;;;;;;9.99;69.03;101316.39;1738521;81;21530;-69
2022/11/10 10:46:10;;;;;;;16.77;11.48;;;;;;;10.02;68.75;101321.45;1749268;81;21553;-69
2022/11/10 10:49:26;;;;;;;18.85;13.38;;;;;;;10.01;68.81;101323.70;1747311;81;21074;-69
2022/11/10 10:52:14;;;;;;;18.37;12.23;;;;;;;10.01;68.96;101328.96;1743594;80;21053;-69
2022/11/10 10:55:01;;;;;;;15.03;11.38;;;;;;;9.99;69.13;101325.59;1736404;81;21526;-69
2022/11/10 10:57:51;;;;;;;16.23;11.22;;;;;;;9.98;69.12;101327.83;1734455;81;21015;-68
2022/11/10 11:00:45;;;;;;;20.10;12.60;;;;;;;10.04;68.85;101330.09;1735839;80;21321;-68
2022/11/10 11:03:41;;;;;;;21.68;14.00;;;;;;;10.05;68.97;101327.81;1733076;81;21761;-69
2022/11/10 11:06:29;;;;;;;;;;;;;;;10.01;69.03;101330.28;1737292;82;21130;-69
2022/11/10 11:09:25;;;;;;;18.52;13.50;;;;;;;9.99;68.99;101329.53;1722323;80;21167;-70
2022/11/10 11:12:22;;;;;;;18.70;12.98;;;;;;;9.89;69.15;101333.68;1728200;81;21816;-69
2022/11/10 11:15:27;;;;;;;19.37;13.68;;;;;;;9.88;69.44;101331.50;1717863;81;21070;-69
2022/11/10 11:18:17;;;;;;;18.75;13.25;;;;;;;9.94;69.27;101334.23;1722960;81;21072;-68
2022/11/10 11:21:24;;;;;;;19.15;13.55;;;;;;;9.93;69.32;101328.59;1722887;82;21516;-69
2022/11/10 11:24:23;;;;;;;19.32;14.18;;;;;;;9.88;69.49;101331.98;1726443;81;21153;-69
2022/11/10 11:27:29;;;;;;;20.00;13.22;;;;;;;9.79;69.65;101328.97;1723649;81;21063;-69
2022/11/10 11:30:19;;;;;;;21.27;13.48;;;;;;;9.76;69.85;101331.78;1727339;81;21079;-68
2022/11/10 11:34:03;;;;;;;21.75;14.87;;;;;;;9.81;69.82;101332.34;1725511;81;21093;-69
2022/11/10 11:37:14;;;;;;;20.60;14.20;;;;;;;9.81;70.09;101328.41;1724121;81;21147;-69
2022/11/10 11:40:25;;;;;;;22.07;14.40;;;;;;;9.78;70.08;101337.78;1722721;81;21633;-70
2022/11/10 11:43:52;;;;;;;21.73;14.95;;;;;;;9.69;70.30;101340.16;1724382;82;21059;-68
2022/11/10 11:47:00;;;;;;;20.43;13.90;;;;;;;9.67;70.45;101342.40;1721844;81;21094;-69
2022/11/10 11:50:15;;;;;;;23.32;15.43;;;;;;;9.72;70.54;101346.06;1724077;81;21095;-69
2022/11/10 11:53:21;;;;;;;20.12;14.35;;;;;;;9.73;70.58;101344.27;1724385;81;21024;-68
2022/11/10 11:56:25;;;;;;;23.55;14.98;;;;;;;9.70;70.74;101345.77;1719134;82;21150;-70
2022/11/10 11:59:33;;;;;;;21.05;14.20;;;;;;;9.65;70.85;101340.81;1721705;82;21118;-70
2022/11/10 12:02:38;;;;;;;18.73;12.88;;;;;;;9.64;70.97;101344.38;1726376;81;21008;-72
2022/11/10 12:06:07;;;;;;;20.65;14.05;;;;;;;9.69;70.93;101348.05;1713733;82;21073;-70
2022/11/10 12:09:35;;;;;;;21.00;15.23;;;;;;;9.70;71.00;101349.27;1716012;82;21047;-68
2022/11/10 12:13:09;;;;;;;25.15;17.05;;;;;;;9.68;71.14;101349.80;1712790;82;22014;-69
2022/11/10 12:16:18;;;;;;;20.82;14.95;;;;;;;9.62;71.36;101347.57;1715557;82;20988;-68
2022/11/10 12:19:24;;;;;;;19.92;13.53;;;;;;;9.64;71.42;101343.89;1714183;83;21562;-68
2022/11/10 12:22:30;;;;;;;20.23;14.78;;;;;;;9.70;71.41;101346.64;1713949;82;21056;-68
2022/11/10 12:25:27;;;;;;;25.52;15.48;;;;;;;9.69;71.55;101342.30;1713487;83;21019;-68
2022/11/10 12:28:23;;;;;;;21.55;15.00;;;;;;;9.66;71.87;101339.38;1716221;82;21205;-66
2022/11/10 12:31:13;;;;;;;20.75;14.20;;;;;;;9.63;72.03;101337.41;1713890;83;21079;-68
2022/11/10 12:34:06;;;;;;;19.87;13.48;;;;;;;9.65;72.09;101343.45;1711846;82;21035;-67
2022/11/10 12:36:51;;;;;;;26.48;15.40;;;;;;;9.70;72.14;101344.02;1715609;83;21564;-68
2022/11/10 12:40:22;;;;;;;20.32;14.25;;;;;;;9.72;72.09;101336.87;1713048;82;21145;-68
2022/11/10 12:43:42;;;;;;;19.25;13.95;;;;;;;9.71;72.27;101338.27;1717947;82;21344;-68
2022/11/10 12:46:28;;;;;;;20.23;12.03;;;;;;;9.65;72.60;101340.81;1699967;83;21031;-68
2022/11/10 12:49:24;;;;;;;20.20;13.13;;;;;;;9.68;72.56;101340.61;1714542;82;21545;-69
2022/11/10 12:52:24;;;;;;;21.60;13.50;;;;;;;9.74;72.46;101338.92;1715711;82;21102;-68
2022/11/10 12:55:13;;;;;;;22.05;13.88;;;;;;;9.76;72.54;101334.41;1716302;82;21047;-69
2022/11/10 12:58:00;;;;;;;21.70;15.15;;;;;;;9.73;72.74;101338.54;1708334;82;21166;-69
2022/11/10 13:01:05;;;;;;;22.17;14.73;;;;;;;9.70;72.88;101336.13;1713454;83;21054;-69
2022/11/10 13:03:56;;;;;;;23.73;15.72;;;;;;;9.71;72.92;101339.11;1731257;82;21044;-68
2022/11/10 13:06:54;;;;;;;21.73;14.07;;;;;;;9.76;72.89;101342.30;1730740;82;21011;-68
2022/11/10 13:09:41;;;;;;;21.15;14.23;;;;;;;9.83;72.93;101343.64;1728177;80;22226;-69
2022/11/10 13:12:27;;;;;;;22.00;14.15;;;;;;;9.88;72.98;101343.33;1749599;82;21501;-68
2022/11/10 13:15:40;;;;;;;20.82;14.58;;;;;;;9.88;72.98;101339.86;1730633;81;21477;-68
2022/11/10 13:18:36;;;;;;;31.00;16.55;;;;;;;9.83;73.08;101349.34;1741194;82;21062;-67
2022/11/10 13:21:53;;;;;;;20.88;13.95;;;;;;;9.76;73.29;101350.66;1737843;82;21516;-68